createdAt,value
2022-12-20T06:18:39.847Z,5.60
2022-12-20T06:21:41.478Z,7.22
2022-12-20T06:24:48.198Z,2.75
2022-12-20T06:27:50.544Z,9.50
2022-12-20T06:30:56.129Z,4.25
2022-12-20T06:33:57.770Z,7.57
2022-12-20T06:36:59.414Z,7.82
2022-12-20T06:40:02.475Z,5.22
2022-12-20T06:43:04.165Z,10.73
2022-12-20T06:46:06.392Z,5.93
2022-12-20T06:49:08.375Z,8.27
2022-12-20T06:52:10.027Z,5.40
2022-12-20T06:55:11.744Z,7.35
2022-12-20T06:58:13.694Z,6.88
2022-12-20T07:01:15.424Z,6.65
2022-12-20T07:04:17.147Z,5.90
2022-12-20T07:07:18.977Z,7.68
2022-12-20T07:10:20.918Z,6.18
2022-12-20T07:13:22.749Z,4.93
2022-12-20T07:16:24.585Z,5.05
2022-12-20T07:19:26.518Z,8.52
2022-12-20T07:22:28.177Z,7.85
2022-12-20T07:25:29.816Z,9.65
2022-12-20T07:28:31.764Z,7.63
2022-12-20T07:31:33.550Z,3.63
2022-12-20T07:34:37.169Z,4.07
2022-12-20T07:37:38.868Z,1.38
2022-12-20T07:40:42.151Z,1.75
2022-12-20T07:43:43.803Z,3.03
2022-12-20T07:46:45.510Z,1.58
2022-12-20T07:49:49.380Z,2.38
2022-12-20T07:52:51.047Z,0.95
2022-12-20T07:55:52.903Z,3.33
2022-12-20T07:58:58.218Z,0.25
2022-12-20T08:02:04.744Z,0.73
2022-12-20T08:05:07.854Z,1.13
2022-12-20T08:08:09.905Z,1.10
2022-12-20T08:11:11.562Z,1.00
2022-12-20T08:14:13.372Z,0.50
2022-12-20T08:17:15.062Z,3.15
2022-12-20T08:20:16.873Z,0.75
2022-12-20T08:23:19.539Z,0.85
2022-12-20T08:26:21.195Z,3.70
2022-12-20T08:29:22.960Z,2.63
2022-12-20T08:32:24.638Z,2.28
2022-12-20T08:35:26.890Z,1.80
2022-12-20T08:38:31.720Z,2.90
2022-12-20T08:41:34.612Z,2.33
2022-12-20T08:44:36.235Z,0.75
2022-12-20T08:47:39.014Z,3.63
2022-12-20T08:50:40.737Z,1.10
2022-12-20T08:53:42.414Z,1.00
2022-12-20T08:56:44.066Z,2.83
2022-12-20T08:59:45.916Z,1.42
2022-12-20T09:02:49.020Z,4.10
2022-12-20T09:05:50.950Z,0.88
2022-12-20T09:08:52.829Z,1.92
2022-12-20T09:11:54.487Z,0.68
2022-12-20T09:14:56.233Z,3.47
2022-12-20T09:17:58.042Z,2.90
2022-12-20T09:21:03.736Z,4.53
2022-12-20T09:24:06.297Z,1.95
2022-12-20T09:27:07.960Z,2.22
2022-12-20T09:30:10.055Z,3.65
2022-12-20T09:33:11.740Z,3.58
2022-12-20T09:36:18.845Z,3.95
2022-12-20T09:39:20.759Z,2.65
2022-12-20T09:42:24.201Z,3.13
2022-12-20T09:45:28.203Z,4.93
2022-12-20T09:48:35.363Z,3.20
2022-12-20T09:51:39.815Z,3.78
2022-12-20T09:54:57.342Z,1.70
2022-12-20T09:58:24.296Z,5.00
2022-12-20T10:01:30.036Z,4.13
2022-12-20T10:04:34.505Z,1.75
2022-12-20T10:07:42.027Z,5.90
2022-12-20T10:10:46.472Z,4.53
2022-12-20T10:14:37.351Z,4.22
2022-12-20T10:18:09.892Z,2.28
2022-12-20T10:21:37.516Z,4.78
2022-12-20T10:27:43.701Z,2.85
2022-12-20T10:30:45.353Z,0.68
2022-12-20T10:33:46.980Z,5.28
2022-12-20T10:36:48.627Z,5.75
2022-12-20T10:39:51.363Z,5.03
2022-12-20T10:42:53.351Z,2.63
2022-12-20T10:46:02.501Z,2.78
2022-12-20T10:49:23.503Z,2.70
2022-12-20T10:52:25.178Z,2.58
2022-12-20T10:55:35.590Z,4.38
2022-12-20T10:58:37.416Z,6.00
2022-12-20T11:01:39.137Z,4.50
2022-12-20T11:04:40.848Z,4.57
2022-12-20T11:11:20.525Z,4.53
2022-12-20T11:14:22.425Z,4.72
2022-12-20T11:17:29.647Z,3.85
2022-12-20T11:20:37.131Z,4.70
2022-12-20T11:23:55.952Z,5.60
2022-12-20T11:27:25.650Z,6.22
2022-12-20T11:30:39.904Z,6.43
2022-12-20T11:33:56.335Z,3.92
2022-12-20T11:37:25.276Z,6.50
2022-12-20T11:40:31.709Z,3.95
2022-12-20T11:47:45.128Z,6.43
2022-12-20T11:51:08.690Z,6.63
2022-12-20T11:54:38.208Z,9.50
2022-12-20T11:58:18.537Z,5.97
2022-12-20T12:01:30.710Z,5.20
2022-12-20T12:04:38.911Z,7.40
2022-12-20T12:07:40.652Z,5.53
2022-12-20T12:10:44.395Z,5.85
2022-12-20T12:13:46.138Z,7.00
2022-12-20T12:16:48.720Z,8.48
2022-12-20T12:19:50.549Z,8.88
2022-12-20T12:22:56.171Z,4.65
2022-12-20T12:26:00.259Z,9.57
2022-12-20T12:29:08.875Z,8.55
2022-12-20T12:32:31.201Z,7.63
2022-12-20T12:36:01.543Z,7.28
2022-12-20T12:39:53.119Z,7.15
2022-12-20T12:43:16.374Z,5.38
2022-12-20T12:46:32.365Z,6.60
2022-12-20T12:49:34.223Z,6.20
2022-12-20T12:52:41.205Z,10.30
2022-12-20T12:55:50.483Z,5.72
2022-12-20T12:59:07.882Z,6.88
2022-12-20T13:02:16.204Z,8.77
2022-12-20T13:05:26.013Z,8.48
2022-12-20T13:08:47.767Z,6.95
2022-12-20T13:11:57.403Z,6.93
2022-12-20T13:15:02.159Z,8.07
2022-12-20T13:18:13.298Z,4.47
2022-12-20T13:21:39.218Z,7.68
2022-12-20T13:24:50.594Z,4.47
2022-12-20T13:27:52.631Z,7.35
2022-12-20T13:31:04.497Z,8.40
2022-12-20T13:34:38.539Z,8.45
2022-12-20T13:37:56.723Z,11.23
2022-12-20T13:41:01.644Z,7.45
2022-12-20T13:44:16.987Z,5.13
2022-12-20T13:47:38.806Z,6.72
2022-12-20T13:50:40.774Z,5.93
2022-12-20T13:53:55.397Z,6.90
2022-12-20T13:56:57.070Z,8.90
2022-12-20T14:00:06.823Z,5.47
2022-12-20T14:03:40.098Z,7.15
2022-12-20T14:06:41.898Z,12.77
2022-12-20T14:09:45.516Z,5.78
2022-12-20T14:12:47.272Z,8.23
2022-12-20T14:15:49.030Z,5.40
2022-12-20T14:18:51.714Z,6.53
2022-12-20T14:21:53.430Z,9.52
2022-12-20T14:24:55.088Z,8.45
2022-12-20T14:27:57.974Z,7.00
2022-12-20T14:31:01.081Z,6.32
2022-12-20T14:34:11.951Z,13.75
2022-12-20T14:37:36.119Z,5.18
2022-12-20T14:40:46.659Z,11.02
2022-12-20T14:43:55.593Z,8.55
2022-12-20T14:47:04.845Z,8.02
2022-12-20T14:50:31.401Z,10.50
2022-12-20T14:53:33.043Z,11.90
2022-12-20T14:56:34.729Z,9.68
2022-12-20T14:59:36.447Z,10.00
2022-12-20T15:02:47.396Z,11.52
2022-12-20T15:05:53.804Z,11.73
2022-12-20T15:08:55.599Z,14.80
2022-12-20T15:11:57.354Z,4.18
2022-12-20T15:15:17.838Z,9.90
2022-12-20T15:21:34.000Z,8.48
2022-12-20T15:24:35.672Z,7.30
2022-12-20T15:27:37.371Z,15.27
2022-12-20T15:30:39.045Z,12.02
2022-12-20T15:33:41.434Z,7.88
2022-12-20T15:36:43.157Z,11.38
2022-12-20T15:39:45.038Z,6.78
2022-12-20T15:42:46.670Z,7.72
2022-12-20T15:45:52.590Z,5.15
2022-12-20T15:48:54.638Z,7.10
2022-12-20T15:51:56.305Z,10.82
2022-12-20T15:54:57.977Z,7.30
2022-12-20T15:57:59.813Z,10.07
2022-12-20T16:01:03.962Z,10.82
2022-12-20T16:04:06.280Z,6.88
2022-12-20T16:07:12.468Z,8.35
2022-12-20T16:10:15.277Z,11.93
2022-12-20T16:13:26.471Z,10.23
2022-12-20T16:16:37.933Z,9.70
2022-12-20T16:19:40.134Z,12.60
2022-12-20T16:22:41.952Z,9.85
2022-12-20T16:25:43.712Z,8.13
2022-12-20T16:28:47.785Z,14.65
2022-12-20T16:31:49.621Z,12.77
2022-12-20T16:34:51.476Z,11.93
2022-12-20T16:37:55.573Z,10.88
2022-12-20T16:40:58.935Z,12.85
2022-12-20T16:44:01.676Z,11.95
2022-12-20T16:47:03.414Z,11.55
2022-12-20T16:50:08.049Z,12.65
2022-12-20T16:53:14.054Z,9.80
2022-12-20T16:56:15.730Z,21.88
2022-12-20T16:59:19.759Z,13.65
2022-12-20T17:02:29.886Z,11.60
2022-12-20T17:05:33.807Z,17.63
2022-12-20T17:11:54.498Z,11.27
2022-12-20T17:14:56.633Z,10.48
2022-12-20T17:17:58.489Z,9.45
2022-12-20T17:21:01.908Z,7.15
2022-12-20T17:24:06.269Z,10.95
2022-12-20T17:27:10.519Z,8.48
2022-12-20T17:30:12.535Z,12.05
2022-12-20T17:33:14.924Z,8.25
2022-12-20T17:36:16.572Z,7.32
2022-12-20T17:39:18.365Z,8.82
2022-12-20T17:42:23.151Z,9.80
2022-12-20T17:45:32.772Z,8.43
2022-12-20T17:48:37.754Z,5.68
2022-12-20T17:51:43.826Z,10.38
2022-12-20T17:54:45.492Z,9.98
2022-12-20T17:57:47.432Z,6.68
2022-12-20T18:00:49.647Z,9.82
2022-12-20T18:04:07.445Z,10.43
2022-12-20T18:07:09.255Z,9.15
2022-12-20T18:10:11.212Z,8.35
2022-12-20T18:13:12.863Z,10.45
2022-12-20T18:16:16.161Z,9.43
2022-12-20T18:19:18.877Z,9.43
2022-12-20T18:22:20.564Z,7.93
2022-12-20T18:25:22.225Z,10.07
2022-12-20T18:28:24.009Z,11.02
2022-12-20T18:31:27.081Z,8.68
2022-12-20T18:34:28.844Z,11.57
2022-12-20T18:37:30.484Z,7.43
2022-12-20T18:40:32.195Z,10.93
2022-12-20T18:43:34.620Z,7.57
2022-12-20T18:46:36.403Z,13.90
2022-12-20T18:49:38.481Z,12.68
2022-12-20T18:52:46.991Z,9.02
2022-12-20T18:55:50.895Z,9.13
2022-12-20T19:01:57.656Z,9.85
2022-12-20T19:04:59.411Z,8.57
2022-12-20T19:08:01.497Z,9.07
2022-12-20T19:11:07.868Z,12.35
2022-12-20T19:14:09.674Z,11.20
2022-12-20T19:17:14.181Z,12.65
2022-12-20T19:20:21.034Z,9.57
2022-12-20T19:23:22.745Z,12.70
2022-12-20T19:26:28.721Z,9.60
2022-12-20T19:29:33.103Z,10.43
2022-12-20T19:32:34.745Z,12.50
2022-12-20T19:39:01.620Z,13.70
2022-12-20T19:42:23.460Z,9.10
2022-12-20T19:45:26.347Z,7.88
2022-12-20T19:48:32.946Z,7.57
2022-12-20T19:51:37.613Z,12.35
2022-12-20T19:54:39.825Z,12.88
2022-12-20T19:57:44.718Z,12.43
2022-12-20T20:00:49.970Z,12.48
2022-12-20T20:03:52.718Z,4.22
2022-12-20T20:06:57.548Z,13.38
2022-12-20T20:09:59.327Z,10.77
2022-12-20T20:13:00.976Z,9.52
2022-12-20T20:16:03.323Z,6.97
2022-12-20T20:19:05.584Z,10.88
2022-12-20T20:22:07.445Z,13.07
2022-12-20T20:28:41.875Z,6.38
2022-12-20T20:31:46.974Z,7.93
2022-12-20T20:34:49.008Z,8.80
2022-12-20T20:38:09.823Z,5.72
2022-12-20T20:41:11.579Z,6.13
2022-12-20T20:44:13.325Z,8.40
2022-12-20T20:47:15.321Z,8.48
2022-12-20T20:50:18.035Z,7.90
2022-12-20T20:53:19.783Z,7.30
2022-12-20T20:56:21.530Z,10.82
2022-12-20T20:59:23.983Z,11.00
2022-12-20T21:02:25.724Z,6.80
2022-12-20T21:08:49.216Z,7.97
2022-12-20T21:11:51.029Z,7.88
2022-12-20T21:15:21.365Z,8.25
2022-12-20T21:18:15.071Z,10.98
2022-12-20T21:21:16.799Z,14.50
2022-12-20T21:24:18.665Z,8.75
2022-12-20T21:27:20.319Z,12.55
2022-12-20T21:30:23.702Z,11.13
2022-12-20T21:33:25.356Z,9.15
2022-12-20T21:36:27.111Z,9.15
2022-12-20T21:39:28.843Z,13.32
2022-12-20T21:42:31.348Z,12.07
2022-12-20T21:45:34.138Z,10.27
2022-12-20T21:48:36.012Z,10.18
2022-12-20T21:51:37.658Z,10.05
2022-12-20T21:54:39.435Z,10.50
2022-12-20T21:57:41.167Z,11.38
2022-12-20T22:00:43.153Z,7.40
2022-12-20T22:03:55.388Z,12.00
2022-12-20T22:06:57.465Z,9.23
2022-12-20T22:09:59.223Z,14.48
2022-12-20T22:13:00.909Z,14.75
2022-12-20T22:16:09.763Z,17.23
2022-12-20T22:19:13.043Z,9.88
2022-12-20T22:22:15.208Z,9.45
2022-12-20T22:25:16.898Z,13.10
2022-12-20T22:28:18.639Z,14.27
2022-12-20T22:31:20.651Z,12.80
2022-12-20T22:34:22.358Z,11.38
2022-12-20T22:37:27.422Z,12.55
2022-12-20T22:40:29.374Z,6.43
2022-12-20T22:43:33.804Z,9.00
2022-12-20T22:46:38.317Z,12.00
2022-12-20T22:49:40.185Z,11.80
2022-12-20T22:52:41.808Z,9.95
2022-12-20T22:55:43.515Z,5.95
2022-12-20T22:58:45.870Z,11.90
2022-12-20T23:01:50.470Z,9.95
2022-12-20T23:04:55.581Z,10.88
2022-12-20T23:07:57.575Z,11.50
2022-12-20T23:11:18.084Z,13.60
2022-12-20T23:14:39.513Z,16.20
2022-12-20T23:17:41.166Z,5.80
2022-12-20T23:21:11.979Z,12.63
2022-12-20T23:24:14.675Z,12.55
2022-12-20T23:27:16.491Z,7.97
2022-12-20T23:30:21.155Z,9.48
2022-12-20T23:33:22.814Z,12.00
2022-12-20T23:36:24.557Z,9.50
2022-12-20T23:39:26.535Z,10.25
2022-12-20T23:42:28.261Z,15.07
2022-12-20T23:45:30.285Z,7.57
2022-12-20T23:48:32.646Z,21.42
2022-12-20T23:51:34.615Z,4.78
2022-12-20T23:54:36.352Z,17.67
2022-12-20T23:57:38.153Z,9.35
